Granbury, TX (76048)

12:00 AM CDT on August 31, 2015 (GMT -0500)
Harbor Lakes | | Change Station
CLOSE
Current Station
Personal Weather Station
Location: Granbury, TX
Elevation: 702 ft
Nearby Weather Stations

Elev 702 ft 32.42 °N, 97.76 °W | Updated 28 seconds ago

Clear
Clear
78.8 °F
Feels Like 81 °F
N
3.0
Wind Variable Wind from SSW
Gusts 12.0 mph

Today
High -- | Low -- °F
--% Chance of Precip.
Yesterday
High -- | Low -- °F
Precip. -- in
7:05 AM 7:56 PM
Full, 97% visible
Pressure 29.97 in
Visibility 10.0 miles
Clouds Clear
Heat Index 81 °F
Dew Point 67 °F
Humidity 68%
Rainfall in
Snow Depth Not available.
UV 0 out of 12
Pollen 8.70 out of 12
Air Quality Not available.
Flu Activity Not available.
METAR KGDJ 310415Z AUTO 17007KT 10SM CLR 26/17 A2997 RMK AO2 T02600170
Pressure 29.97 in
Visibility 10.0 miles
Clouds Clear
Heat Index 81 °F
Dew Point 67 °F
Humidity 68%
Rainfall in
Snow Depth Not available.
UV 0 out of 12
Pollen 8.70 out of 12
Air Quality Not available.
Flu Activity Not available.
METAR KGDJ 310415Z AUTO 17007KT 10SM CLR 26/17 A2997 RMK AO2 T02600170

10-Day Weather Forecast

×

Almanac

Astronomy

Aug. 31, 2015 Rise Set
Actual Time
Civil Twilight
Nautical Twilight
Astronomical Twilight
Moon
Length of Visible Light
Length of Day
Tomorrow will be .
, % of the Moon is Illuminated

Today's Extremes

State Highs State Lows

Community

WunderPhotos

Upload Photos

1,851,210 photos uploaded!

WunderBlogs® & News

Nearby

Air Quality

  Air Quality AQ Index Pollutant
Not available.

Snow Depth

Station Depth Elevation

Earthquake Activity

City Distance Mag. Time & Date
Minimum magnitude displayed is 2.5.

Coastal Water Temperatures

Place Temperature

Stations

Nearby Weather Stations

Station Location Temp. Windchill Dew Point Humidity Wind Precip. Elev Updated Type